| time (UTC) | temp F | wind direction | speed MPH | gust MPH | rain 1hr in | rain 24hr in | rain mn in | humidity % | barometer mb |
| 20260506193931 | 49 | 321 | 3.0 | 5.0 | 0.00 | 0.74 | 0.70 | 93 | 1010.7 |
| 20260506192932 | 49 | 334 | 2.0 | 5.0 | 0.00 | 0.75 | 0.70 | 93 | 1010.6 |
| 20260506191930 | 49 | 347 | 3.0 | 6.0 | 0.00 | 0.75 | 0.70 | 93 | 1010.5 |
| 20260506191410 | 49 | 295 | 3.0 | 6.0 | 0.00 | 0.75 | 0.70 | 92 | 1010.5 |
| 20260506185931 | 49 | 316 | 4.0 | 7.0 | 0.00 | 0.75 | 0.70 | 92 | 1010.3 |
| 20260506184932 | 49 | 336 | 4.0 | 10.0 | 0.00 | 0.75 | 0.70 | 92 | 1010.3 |
| 20260506183932 | 49 | 327 | 4.0 | 5.0 | 0.00 | 0.75 | 0.70 | 92 | 1010.2 |
| 20260506182931 | 49 | 350 | 3.0 | 7.0 | 0.00 | 0.75 | 0.70 | 92 | 1010.1 |
| 20260506181932 | 49 | 0 | 2.0 | 7.0 | 0.00 | 0.75 | 0.70 | 92 | 1009.9 |
| 20260506180930 | 49 | 344 | 5.0 | 10.0 | 0.00 | 0.75 | 0.70 | 92 | 1009.9 |
| 20260506175932 | 49 | 0 | 3.0 | 5.0 | 0.00 | 0.75 | 0.70 | 91 | 1009.8 |
| 20260506174931 | 49 | 3 | 4.0 | 10.0 | 0.00 | 0.75 | 0.70 | 91 | 1009.7 |
| 20260506173930 | 49 | 357 | 7.0 | 11.0 | 0.00 | 0.75 | 0.70 | 91 | 1009.6 |
| 20260506172932 | 49 | 355 | 4.0 | 9.0 | 0.00 | 0.75 | 0.70 | 91 | 1009.5 |
| 20260506171931 | 49 | 11 | 4.0 | 12.0 | 0.00 | 0.75 | 0.70 | 91 | 1009.4 |
| 20260506170928 | 49 | 8 | 3.0 | 10.0 | 0.00 | 0.75 | 0.70 | 91 | 1009.1 |
| 20260506165928 | 49 | 0 | 2.0 | 10.0 | 0.00 | 0.75 | 0.70 | 91 | 1009.1 |
| 20260506164927 | 49 | 343 | 4.0 | 10.0 | 0.00 | 0.75 | 0.70 | 90 | 1009.1 |
| 20260506163931 | 49 | 4 | 4.0 | 10.0 | 0.00 | 0.75 | 0.70 | 90 | 1009.0 |
| 20260506162927 | 50 | 28 | 5.0 | 9.0 | 0.00 | 0.75 | 0.70 | 91 | 1009.0 |
| 20260506161928 | 49 | 0 | 6.0 | 11.0 | 0.00 | 0.75 | 0.70 | 90 | 1008.9 |
| 20260506160927 | 50 | 0 | 5.0 | 11.0 | 0.00 | 0.75 | 0.70 | 90 | 1008.8 |
| 20260506155926 | 50 | 0 | 4.0 | 9.0 | 0.00 | 0.75 | 0.70 | 91 | 1008.8 |
| 20260506154926 | 50 | 0 | 4.0 | 7.0 | 0.00 | 0.75 | 0.70 | 91 | 1008.8 |
| 20260506153926 | 50 | 0 | 4.0 | 12.0 | 0.00 | 0.75 | 0.70 | 91 | 1008.8 |
| 20260506152926 | 50 | 0 | 5.0 | 7.0 | 0.00 | 0.75 | 0.70 | 91 | 1008.8 |
| 20260506151926 | 49 | 340 | 4.0 | 10.0 | 0.01 | 0.75 | 0.70 | 92 | 1008.7 |
| 20260506151407 | 49 | 358 | 7.0 | 11.0 | 0.01 | 0.75 | 0.70 | 92 | 1008.7 |
| 20260506145928 | 49 | 350 | 6.0 | 9.0 | 0.01 | 0.74 | 0.70 | 92 | 1008.7 |
| 20260506144925 | 49 | 313 | 6.0 | 9.0 | 0.01 | 0.74 | 0.70 | 92 | 1008.7 |
| 20260506143926 | 49 | 326 | 4.0 | 9.0 | 0.01 | 0.74 | 0.70 | 92 | 1008.7 |
| 20260506142925 | 49 | 320 | 4.0 | 10.0 | 0.01 | 0.74 | 0.70 | 92 | 1008.7 |
| 20260506141927 | 50 | 336 | 5.0 | 12.0 | 0.00 | 0.74 | 0.69 | 92 | 1008.6 |
| 20260506140926 | 50 | 0 | 7.0 | 12.0 | 0.00 | 0.74 | 0.69 | 92 | 1008.6 |
| 20260506135924 | 50 | 4 | 4.0 | 9.0 | 0.00 | 0.74 | 0.69 | 92 | 1008.6 |
| 20260506135402 | 50 | 354 | 5.0 | 10.0 | 0.00 | 0.74 | 0.69 | 92 | 1008.5 |
| 20260506133926 | 50 | 350 | 4.0 | 10.0 | 0.00 | 0.74 | 0.69 | 93 | 1008.5 |
| 20260506133414 | 50 | 307 | 4.0 | 11.0 | 0.00 | 0.74 | 0.69 | 93 | 1008.6 |
| 20260506131925 | 49 | 0 | 5.0 | 11.0 | 0.01 | 0.74 | 0.69 | 93 | 1008.5 |
| 20260506130922 | 49 | 350 | 5.0 | 12.0 | 0.02 | 0.74 | 0.69 | 93 | 1008.4 |
| 20260506125923 | 49 | 350 | 6.0 | 11.0 | 0.02 | 0.72 | 0.69 | 93 | 1008.3 |
| 20260506124922 | 49 | 309 | 5.0 | 9.0 | 0.03 | 0.72 | 0.69 | 93 | 1008.2 |
| 20260506124403 | 49 | 331 | 6.0 | 12.0 | 0.03 | 0.72 | 0.69 | 93 | 1008.2 |
| 20260506122922 | 49 | 305 | 4.0 | 7.0 | 0.04 | 0.72 | 0.69 | 93 | 1008.2 |
| 20260506121922 | 49 | 0 | 5.0 | 12.0 | 0.03 | 0.72 | 0.69 | 93 | 1008.1 |
| 20260506120925 | 49 | 355 | 5.0 | 11.0 | 0.03 | 0.72 | 0.68 | 93 | 1008.0 |
| 20260506115921 | 49 | 345 | 7.0 | 15.0 | 0.02 | 0.69 | 0.67 | 93 | 1008.0 |
| 20260506114922 | 49 | 347 | 7.0 | 12.0 | 0.02 | 0.69 | 0.66 | 93 | 1007.9 |
| 20260506113921 | 49 | 7 | 1.0 | 11.0 | 0.03 | 0.69 | 0.66 | 94 | 1007.9 |
| 20260506112922 | 49 | 347 | 4.0 | 16.0 | 0.04 | 0.69 | 0.65 | 94 | 1007.8 |
| 20260506111921 | 49 | 0 | 7.0 | 12.0 | 0.05 | 0.69 | 0.65 | 93 | 1007.8 |
| 20260506110920 | 49 | 343 | 6.0 | 12.0 | 0.05 | 0.69 | 0.65 | 94 | 1007.7 |
| 20260506105921 | 49 | 0 | 5.0 | 12.0 | 0.05 | 0.65 | 0.65 | 94 | 1007.7 |
| 20260506104920 | 49 | 0 | 4.0 | 14.0 | 0.05 | 0.65 | 0.64 | 94 | 1007.7 |
| 20260506104406 | 49 | 320 | 6.0 | 16.0 | 0.04 | 0.65 | 0.63 | 94 | 1007.7 |
| 20260506102920 | 49 | 357 | 7.0 | 17.0 | 0.03 | 0.65 | 0.61 | 94 | 1007.6 |
| 20260506101921 | 50 | 303 | 8.0 | 14.0 | 0.03 | 0.65 | 0.61 | 94 | 1007.4 |
| 20260506101354 | 50 | 326 | 5.0 | 10.0 | 0.03 | 0.65 | 0.60 | 94 | 1007.4 |
| 20260506095921 | 50 | 0 | 5.0 | 10.0 | 0.03 | 0.61 | 0.60 | 94 | 1007.3 |
| 20260506094920 | 50 | 340 | 5.0 | 10.0 | 0.03 | 0.61 | 0.59 | 94 | 1007.2 |
| 20260506093925 | 50 | 299 | 6.0 | 12.0 | 0.03 | 0.61 | 0.59 | 95 | 1007.1 |
| 20260506092917 | 50 | 345 | 7.0 | 12.0 | 0.03 | 0.61 | 0.58 | 94 | 1007.0 |
| 20260506091918 | 50 | 348 | 4.0 | 11.0 | 0.02 | 0.61 | 0.57 | 95 | 1007.1 |
| 20260506090912 | 50 | 347 | 6.0 | 10.0 | 0.02 | 0.61 | 0.57 | 95 | 1006.9 |
| 20260506090344 | 50 | 293 | 5.0 | 10.0 | 0.02 | 0.59 | 0.57 | 95 | 1006.8 |
| 20260506084910 | 50 | 330 | 5.0 | 9.0 | 0.02 | 0.59 | 0.56 | 95 | 1006.8 |
| 20260506083913 | 50 | 338 | 4.0 | 11.0 | 0.03 | 0.59 | 0.56 | 95 | 1006.8 |
| 20260506082907 | 50 | 312 | 4.0 | 10.0 | 0.02 | 0.59 | 0.55 | 95 | 1006.6 |
| 20260506081908 | 50 | 0 | 5.0 | 9.0 | 0.03 | 0.59 | 0.55 | 95 | 1006.6 |
| 20260506081830 | 50 | 340 | 5.0 | 12.0 | 0.03 | 0.59 | 0.54 | 95 | 1006.5 |
| 20260506072906 | 49 | 310 | 3.0 | 6.0 | 0.04 | 0.55 | 0.53 | 95 | 1006.4 |
| 20260506071904 | 49 | 309 | 4.0 | 12.0 | 0.04 | 0.55 | 0.52 | 95 | 1006.4 |
| 20260506071839 | 49 | 0 | 5.0 | 11.0 | 0.03 | 0.55 | 0.51 | 95 | 1006.3 |
| 20260506062342 | 49 | 329 | 6.0 | 11.0 | 0.03 | 0.53 | 0.48 | 96 | 1006.0 |
| 20260506060903 | 49 | 0 | 6.0 | 10.0 | 0.05 | 0.53 | 0.48 | 96 | 1006.0 |
| 20260506050904 | 49 | 7 | 5.0 | 10.0 | 0.08 | 0.46 | 0.43 | 96 | 1005.8 |
| 20260506044905 | 49 | 0 | 5.0 | 9.0 | 0.09 | 0.39 | 0.41 | 95 | 1005.8 |
| 20260506043903 | 49 | 0 | 3.0 | 9.0 | 0.09 | 0.39 | 0.39 | 95 | 1005.8 |
| 20260506042904 | 49 | 344 | 4.0 | 7.0 | 0.09 | 0.39 | 0.38 | 95 | 1005.8 |
| 20260506041904 | 49 | 343 | 4.0 | 6.0 | 0.08 | 0.39 | 0.36 | 95 | 1005.9 |
| 20260506040907 | 49 | 344 | 3.0 | 9.0 | 0.08 | 0.39 | 0.35 | 95 | 1005.9 |
| 20260506035903 | 48 | 340 | 4.0 | 9.0 | 0.08 | 0.31 | 0.34 | 95 | 1005.9 |
| 20260506035345 | 48 | 303 | 3.0 | 7.0 | 0.07 | 0.31 | 0.32 | 95 | 1006.0 |
| 20260506033903 | 48 | 345 | 4.0 | 9.0 | 0.07 | 0.31 | 0.31 | 95 | 1006.0 |
| 20260506032903 | 48 | 313 | 3.0 | 7.0 | 0.07 | 0.31 | 0.29 | 95 | 1006.1 |
| 20260506031904 | 48 | 327 | 2.0 | 10.0 | 0.08 | 0.31 | 0.28 | 95 | 1006.1 |
| 20260506030903 | 49 | 317 | 3.0 | 11.0 | 0.09 | 0.31 | 0.27 | 95 | 1006.2 |
| 20260506025904 | 49 | 348 | 4.0 | 9.0 | 0.08 | 0.23 | 0.26 | 95 | 1006.2 |
| 20260506024902 | 49 | 0 | 4.0 | 10.0 | 0.09 | 0.23 | 0.25 | 95 | 1006.4 |
| 20260506023903 | 49 | 354 | 4.0 | 7.0 | 0.09 | 0.23 | 0.24 | 95 | 1006.4 |
| 20260506022903 | 49 | 314 | 3.0 | 10.0 | 0.08 | 0.23 | 0.21 | 95 | 1006.4 |
| 20260506021905 | 49 | 303 | 4.0 | 11.0 | 0.06 | 0.23 | 0.20 | 95 | 1006.5 |
| 20260506020905 | 49 | 351 | 5.0 | 9.0 | 0.06 | 0.23 | 0.19 | 95 | 1006.5 |
| 20260506015904 | 49 | 348 | 2.0 | 9.0 | 0.06 | 0.17 | 0.18 | 95 | 1006.5 |
| 20260506014904 | 49 | 14 | 5.0 | 12.0 | 0.05 | 0.17 | 0.17 | 95 | 1006.6 |
| 20260506013902 | 49 | 333 | 6.0 | 9.0 | 0.04 | 0.17 | 0.15 | 95 | 1006.6 |
| 20260506012903 | 49 | 0 | 5.0 | 12.0 | 0.04 | 0.17 | 0.14 | 95 | 1006.6 |
| 20260506012347 | 49 | 0 | 4.0 | 11.0 | 0.05 | 0.17 | 0.13 | 95 | 1006.7 |
| 20260506010904 | 49 | 353 | 6.0 | 10.0 | 0.05 | 0.17 | 0.13 | 95 | 1006.8 |
| 20260506010342 | 49 | 0 | 5.0 | 10.0 | 0.05 | 0.13 | 0.13 | 95 | 1006.8 |
| 20260506004904 | 49 | 0 | 6.0 | 10.0 | 0.05 | 0.13 | 0.12 | 95 | 1006.8 |
| 20260506003903 | 49 | 0 | 4.0 | 9.0 | 0.05 | 0.13 | 0.11 | 95 | 1007.0 |
| 20260506002905 | 49 | 4 | 5.0 | 10.0 | 0.05 | 0.13 | 0.09 | 95 | 1007.0 |
| 20260506001903 | 49 | 302 | 4.0 | 10.0 | 0.05 | 0.13 | 0.09 | 95 | 1007.2 |
| 20260506000903 | 50 | 0 | 7.0 | 13.0 | 0.05 | 0.13 | 0.09 | 95 | 1007.2 |
| 20260505235905 | 50 | 0 | 4.0 | 11.0 | 0.05 | 0.08 | 0.08 | 95 | 1007.3 |
| 20260505234905 | 50 | 7 | 4.0 | 10.0 | 0.04 | 0.08 | 0.07 | 95 | 1007.3 |
| 20260505233903 | 50 | 321 | 5.0 | 10.0 | 0.04 | 0.08 | 0.06 | 95 | 1007.4 |
| 20260505232904 | 50 | 331 | 4.0 | 11.0 | 0.03 | 0.08 | 0.06 | 94 | 1007.4 |
| 20260505231906 | 50 | 343 | 5.0 | 9.0 | 0.03 | 0.08 | 0.05 | 95 | 1007.5 |
| 20260505230908 | 50 | 0 | 4.0 | 13.0 | 0.03 | 0.08 | 0.04 | 95 | 1007.5 |
| 20260505225904 | 50 | 358 | 7.0 | 10.0 | 0.03 | 0.05 | 0.03 | 95 | 1007.5 |
| 20260505224904 | 50 | 323 | 5.0 | 11.0 | 0.04 | 0.05 | 0.03 | 95 | 1007.7 |
| 20260505223904 | 50 | 319 | 5.0 | 9.0 | 0.03 | 0.05 | 0.02 | 94 | 1007.7 |
| 20260505222903 | 50 | 0 | 7.0 | 12.0 | 0.04 | 0.05 | 0.02 | 94 | 1007.7 |
| 20260505221905 | 51 | 351 | 5.0 | 11.0 | 0.03 | 0.05 | 0.02 | 94 | 1007.8 |
| 20260505220903 | 51 | 0 | 6.0 | 11.0 | 0.03 | 0.05 | 0.01 | 94 | 1007.8 |
| 20260505215903 | 51 | 0 | 7.0 | 17.0 | 0.02 | 0.02 | 0.05 | 94 | 1007.7 |
| 20260505214904 | 51 | 20 | 4.0 | 11.0 | 0.02 | 0.02 | 0.04 | 94 | 1007.8 |
| 20260505213903 | 51 | 0 | 7.0 | 14.0 | 0.02 | 0.02 | 0.03 | 94 | 1007.9 |
| 20260505212902 | 51 | 0 | 6.0 | 10.0 | 0.02 | 0.02 | 0.03 | 94 | 1007.9 |
| 20260505212337 | 51 | 27 | 5.0 | 12.0 | 0.02 | 0.02 | 0.03 | 94 | 1007.9 |
| 20260505210902 | 51 | 353 | 5.0 | 10.0 | 0.02 | 0.02 | 0.02 | 94 | 1008.0 |
| 20260505205903 | 51 | 34 | 6.0 | 15.0 | 0.02 | 0.01 | 0.02 | 94 | 1008.1 |
| 20260505204902 | 51 | 355 | 5.0 | 12.0 | 0.01 | 0.01 | 0.02 | 94 | 1008.2 |
| 20260505203901 | 51 | 14 | 7.0 | 12.0 | 0.01 | 0.01 | 0.02 | 94 | 1008.1 |
| 20260505202902 | 52 | 16 | 6.0 | 12.0 | 0.02 | 0.01 | 0.02 | 94 | 1008.1 |
| 20260505201901 | 52 | 0 | 8.0 | 13.0 | 0.02 | 0.01 | 0.02 | 94 | 1008.1 |
| 20260505200902 | 51 | 28 | 7.0 | 14.0 | 0.01 | 0.01 | 0.01 | 93 | 1008.0 |
| 20260505200336 | 51 | 31 | 7.0 | 14.0 | 0.01 | 0.00 | 0.01 | 93 | 1008.0 |
| 20260505195339 | 51 | 34 | 7.0 | 12.0 | 0.01 | 0.00 | 0.01 | 93 | 1008.0 |